sensor_id;sensor_type;location;lat;lon;timestamp;temperature;humidity
25342;DHT22;13298;48.792;9.154;2024-01-27T00:02:20;1.70;99.90
25342;DHT22;13298;48.792;9.154;2024-01-27T00:04:46;1.70;99.90
25342;DHT22;13298;48.792;9.154;2024-01-27T00:07:12;1.70;99.90
25342;DHT22;13298;48.792;9.154;2024-01-27T00:09:37;1.80;99.90
25342;DHT22;13298;48.792;9.154;2024-01-27T00:12:03;1.70;99.90
25342;DHT22;13298;48.792;9.154;2024-01-27T00:14:29;1.80;99.90
25342;DHT22;13298;48.792;9.154;2024-01-27T00:16:54;1.80;99.90
25342;DHT22;13298;48.792;9.154;2024-01-27T00:19:20;1.80;99.90
25342;DHT22;13298;48.792;9.154;2024-01-27T00:21:46;1.80;99.90
25342;DHT22;13298;48.792;9.154;2024-01-27T00:24:13;1.80;99.90
25342;DHT22;13298;48.792;9.154;2024-01-27T00:26:39;1.80;99.90
25342;DHT22;13298;48.792;9.154;2024-01-27T00:29:05;1.90;99.90
25342;DHT22;13298;48.792;9.154;2024-01-27T00:31:30;1.90;99.90
25342;DHT22;13298;48.792;9.154;2024-01-27T00:33:56;1.90;99.90
25342;DHT22;13298;48.792;9.154;2024-01-27T00:36:22;1.90;99.90
25342;DHT22;13298;48.792;9.154;2024-01-27T00:38:47;1.80;99.90
25342;DHT22;13298;48.792;9.154;2024-01-27T00:41:17;1.80;99.90
25342;DHT22;13298;48.792;9.154;2024-01-27T00:43:43;1.70;99.90
25342;DHT22;13298;48.792;9.154;2024-01-27T00:46:09;1.60;99.90
25342;DHT22;13298;48.792;9.154;2024-01-27T00:48:34;1.60;99.90
25342;DHT22;13298;48.792;9.154;2024-01-27T00:51:00;1.50;99.90
25342;DHT22;13298;48.792;9.154;2024-01-27T00:53:25;1.50;99.90
25342;DHT22;13298;48.792;9.154;2024-01-27T00:55:51;1.40;99.90
25342;DHT22;13298;48.792;9.154;2024-01-27T00:58:17;1.40;99.90
25342;DHT22;13298;48.792;9.154;2024-01-27T01:00:42;1.40;99.90
25342;DHT22;13298;48.792;9.154;2024-01-27T01:03:08;1.40;99.90
25342;DHT22;13298;48.792;9.154;2024-01-27T01:05:34;1.50;99.90
25342;DHT22;13298;48.792;9.154;2024-01-27T01:07:59;1.50;99.90
25342;DHT22;13298;48.792;9.154;2024-01-27T01:10:25;1.50;99.90
25342;DHT22;13298;48.792;9.154;2024-01-27T01:12:52;1.50;99.90
25342;DHT22;13298;48.792;9.154;2024-01-27T01:15:17;1.40;99.90
25342;DHT22;13298;48.792;9.154;2024-01-27T01:17:43;1.40;99.90
25342;DHT22;13298;48.792;9.154;2024-01-27T01:20:09;1.40;99.90
25342;DHT22;13298;48.792;9.154;2024-01-27T01:22:35;1.30;99.90
25342;DHT22;13298;48.792;9.154;2024-01-27T01:25:01;1.30;99.90
25342;DHT22;13298;48.792;9.154;2024-01-27T01:27:26;1.30;99.90
25342;DHT22;13298;48.792;9.154;2024-01-27T01:29:52;1.30;99.90
25342;DHT22;13298;48.792;9.154;2024-01-27T01:32:18;1.30;99.90
25342;DHT22;13298;48.792;9.154;2024-01-27T01:34:46;1.30;99.90
25342;DHT22;13298;48.792;9.154;2024-01-27T01:37:13;1.30;99.90
25342;DHT22;13298;48.792;9.154;2024-01-27T01:39:39;1.30;99.90
25342;DHT22;13298;48.792;9.154;2024-01-27T01:42:04;1.30;99.90
25342;DHT22;13298;48.792;9.154;2024-01-27T01:44:31;1.40;99.90
25342;DHT22;13298;48.792;9.154;2024-01-27T01:46:59;1.40;99.90
25342;DHT22;13298;48.792;9.154;2024-01-27T01:49:26;1.40;99.90
25342;DHT22;13298;48.792;9.154;2024-01-27T01:51:52;1.50;99.90
25342;DHT22;13298;48.792;9.154;2024-01-27T01:54:18;1.50;99.90
25342;DHT22;13298;48.792;9.154;2024-01-27T01:56:44;1.50;99.90
25342;DHT22;13298;48.792;9.154;2024-01-27T01:59:10;1.50;99.90
25342;DHT22;13298;48.792;9.154;2024-01-27T02:01:36;1.50;99.90
25342;DHT22;13298;48.792;9.154;2024-01-27T02:04:04;1.50;99.90
25342;DHT22;13298;48.792;9.154;2024-01-27T02:06:30;1.50;99.90
25342;DHT22;13298;48.792;9.154;2024-01-27T02:08:56;1.40;99.90
25342;DHT22;13298;48.792;9.154;2024-01-27T02:11:21;1.40;99.90
25342;DHT22;13298;48.792;9.154;2024-01-27T02:13:47;1.30;99.90
25342;DHT22;13298;48.792;9.154;2024-01-27T02:16:13;1.30;99.90
25342;DHT22;13298;48.792;9.154;2024-01-27T02:18:39;1.30;99.90
25342;DHT22;13298;48.792;9.154;2024-01-27T02:21:04;1.20;99.90
25342;DHT22;13298;48.792;9.154;2024-01-27T02:23:30;1.20;99.90
25342;DHT22;13298;48.792;9.154;2024-01-27T02:25:56;1.10;99.90
25342;DHT22;13298;48.792;9.154;2024-01-27T02:28:24;1.00;99.90
25342;DHT22;13298;48.792;9.154;2024-01-27T02:30:50;0.90;99.90
25342;DHT22;13298;48.792;9.154;2024-01-27T02:33:16;0.90;99.90
25342;DHT22;13298;48.792;9.154;2024-01-27T02:35:41;0.90;99.90
25342;DHT22;13298;48.792;9.154;2024-01-27T02:38:09;0.80;99.90
25342;DHT22;13298;48.792;9.154;2024-01-27T02:40:34;0.70;99.90
25342;DHT22;13298;48.792;9.154;2024-01-27T02:43:00;0.80;99.90
25342;DHT22;13298;48.792;9.154;2024-01-27T02:45:26;0.70;99.90
25342;DHT22;13298;48.792;9.154;2024-01-27T02:47:51;0.80;99.90
25342;DHT22;13298;48.792;9.154;2024-01-27T02:50:18;0.80;99.90
25342;DHT22;13298;48.792;9.154;2024-01-27T02:52:43;0.90;99.90
25342;DHT22;13298;48.792;9.154;2024-01-27T02:55:09;1.00;99.90
25342;DHT22;13298;48.792;9.154;2024-01-27T02:57:35;1.00;99.90
25342;DHT22;13298;48.792;9.154;2024-01-27T03:00:01;1.00;99.90
25342;DHT22;13298;48.792;9.154;2024-01-27T03:02:26;0.90;99.90
25342;DHT22;13298;48.792;9.154;2024-01-27T03:04:52;0.80;99.90
25342;DHT22;13298;48.792;9.154;2024-01-27T03:07:18;0.80;99.90
25342;DHT22;13298;48.792;9.154;2024-01-27T03:09:43;0.80;99.90
25342;DHT22;13298;48.792;9.154;2024-01-27T03:12:09;0.80;99.90
25342;DHT22;13298;48.792;9.154;2024-01-27T03:14:35;0.80;99.90
25342;DHT22;13298;48.792;9.154;2024-01-27T03:17:00;0.90;99.90
25342;DHT22;13298;48.792;9.154;2024-01-27T03:19:26;0.90;99.90
25342;DHT22;13298;48.792;9.154;2024-01-27T03:21:52;1.00;99.90
25342;DHT22;13298;48.792;9.154;2024-01-27T03:24:18;1.00;99.90
25342;DHT22;13298;48.792;9.154;2024-01-27T03:26:43;1.00;99.90
25342;DHT22;13298;48.792;9.154;2024-01-27T03:29:09;1.10;99.90
25342;DHT22;13298;48.792;9.154;2024-01-27T03:31:35;1.00;99.90
25342;DHT22;13298;48.792;9.154;2024-01-27T03:34:01;1.00;99.90
25342;DHT22;13298;48.792;9.154;2024-01-27T03:36:27;1.00;99.90
25342;DHT22;13298;48.792;9.154;2024-01-27T03:38:55;1.00;99.90
25342;DHT22;13298;48.792;9.154;2024-01-27T03:41:22;1.00;99.90
25342;DHT22;13298;48.792;9.154;2024-01-27T03:43:47;1.00;99.90
25342;DHT22;13298;48.792;9.154;2024-01-27T03:46:13;1.10;99.90
25342;DHT22;13298;48.792;9.154;2024-01-27T03:48:39;1.10;99.90
25342;DHT22;13298;48.792;9.154;2024-01-27T03:51:05;1.10;99.90
25342;DHT22;13298;48.792;9.154;2024-01-27T03:53:31;1.10;99.90
25342;DHT22;13298;48.792;9.154;2024-01-27T03:55:57;1.10;99.90
25342;DHT22;13298;48.792;9.154;2024-01-27T03:58:25;1.10;99.90
25342;DHT22;13298;48.792;9.154;2024-01-27T04:00:51;1.00;99.90
25342;DHT22;13298;48.792;9.154;2024-01-27T04:03:20;1.00;99.90
25342;DHT22;13298;48.792;9.154;2024-01-27T04:05:45;1.00;99.90
25342;DHT22;13298;48.792;9.154;2024-01-27T04:08:11;1.00;99.90
25342;DHT22;13298;48.792;9.154;2024-01-27T04:10:37;1.00;99.90
25342;DHT22;13298;48.792;9.154;2024-01-27T04:13:03;1.00;99.90
25342;DHT22;13298;48.792;9.154;2024-01-27T04:15:29;1.00;99.90
25342;DHT22;13298;48.792;9.154;2024-01-27T04:17:55;0.90;99.90
25342;DHT22;13298;48.792;9.154;2024-01-27T04:20:21;0.90;99.90
25342;DHT22;13298;48.792;9.154;2024-01-27T04:22:47;0.90;99.90
25342;DHT22;13298;48.792;9.154;2024-01-27T04:25:12;0.90;99.90
25342;DHT22;13298;48.792;9.154;2024-01-27T04:27:39;0.80;99.90
25342;DHT22;13298;48.792;9.154;2024-01-27T04:30:06;0.70;99.90
25342;DHT22;13298;48.792;9.154;2024-01-27T04:32:32;0.70;99.90
25342;DHT22;13298;48.792;9.154;2024-01-27T04:34:58;0.70;99.90
25342;DHT22;13298;48.792;9.154;2024-01-27T04:37:24;0.60;99.90
25342;DHT22;13298;48.792;9.154;2024-01-27T04:39:49;0.60;99.90
25342;DHT22;13298;48.792;9.154;2024-01-27T04:42:15;0.50;99.90
25342;DHT22;13298;48.792;9.154;2024-01-27T04:44:41;0.50;99.90
25342;DHT22;13298;48.792;9.154;2024-01-27T04:47:08;0.50;99.90
25342;DHT22;13298;48.792;9.154;2024-01-27T04:49:34;0.50;99.90
25342;DHT22;13298;48.792;9.154;2024-01-27T04:51:59;0.50;99.90
25342;DHT22;13298;48.792;9.154;2024-01-27T04:54:25;0.50;99.90
25342;DHT22;13298;48.792;9.154;2024-01-27T04:56:51;0.50;99.90
25342;DHT22;13298;48.792;9.154;2024-01-27T04:59:16;0.40;99.90
25342;DHT22;13298;48.792;9.154;2024-01-27T05:01:46;0.40;99.90
25342;DHT22;13298;48.792;9.154;2024-01-27T05:04:12;0.40;99.90
25342;DHT22;13298;48.792;9.154;2024-01-27T05:06:38;0.40;99.90
25342;DHT22;13298;48.792;9.154;2024-01-27T05:09:06;0.40;99.90
25342;DHT22;13298;48.792;9.154;2024-01-27T05:11:33;0.40;99.90
25342;DHT22;13298;48.792;9.154;2024-01-27T05:13:59;0.40;99.90
25342;DHT22;13298;48.792;9.154;2024-01-27T05:16:26;0.40;99.90
25342;DHT22;13298;48.792;9.154;2024-01-27T05:18:52;0.40;99.90
25342;DHT22;13298;48.792;9.154;2024-01-27T05:21:18;0.40;99.90
25342;DHT22;13298;48.792;9.154;2024-01-27T05:23:44;0.40;99.90
25342;DHT22;13298;48.792;9.154;2024-01-27T05:26:09;0.30;99.90
25342;DHT22;13298;48.792;9.154;2024-01-27T05:28:37;0.30;99.90
25342;DHT22;13298;48.792;9.154;2024-01-27T05:31:03;0.30;99.90
25342;DHT22;13298;48.792;9.154;2024-01-27T05:33:32;0.30;99.90
25342;DHT22;13298;48.792;9.154;2024-01-27T05:35:57;0.30;99.90
25342;DHT22;13298;48.792;9.154;2024-01-27T05:38:23;0.30;99.90
25342;DHT22;13298;48.792;9.154;2024-01-27T05:40:51;0.20;99.90
25342;DHT22;13298;48.792;9.154;2024-01-27T05:43:17;0.20;99.90
25342;DHT22;13298;48.792;9.154;2024-01-27T05:45:43;0.20;99.90
25342;DHT22;13298;48.792;9.154;2024-01-27T05:48:10;0.10;99.90
25342;DHT22;13298;48.792;9.154;2024-01-27T05:50:36;0.10;99.90
25342;DHT22;13298;48.792;9.154;2024-01-27T05:53:02;0.10;99.90
25342;DHT22;13298;48.792;9.154;2024-01-27T05:55:28;0.10;99.90
25342;DHT22;13298;48.792;9.154;2024-01-27T05:57:54;0.20;99.90
25342;DHT22;13298;48.792;9.154;2024-01-27T06:00:22;0.20;99.90
25342;DHT22;13298;48.792;9.154;2024-01-27T06:02:47;0.20;99.90
25342;DHT22;13298;48.792;9.154;2024-01-27T06:05:13;0.20;99.90
25342;DHT22;13298;48.792;9.154;2024-01-27T06:07:39;0.30;99.90
25342;DHT22;13298;48.792;9.154;2024-01-27T06:10:08;0.20;99.90
25342;DHT22;13298;48.792;9.154;2024-01-27T06:12:35;0.20;99.90
25342;DHT22;13298;48.792;9.154;2024-01-27T06:15:01;0.20;99.90
25342;DHT22;13298;48.792;9.154;2024-01-27T06:17:28;0.10;99.90
25342;DHT22;13298;48.792;9.154;2024-01-27T06:19:54;0.00;99.90
25342;DHT22;13298;48.792;9.154;2024-01-27T06:22:19;0.00;99.90
25342;DHT22;13298;48.792;9.154;2024-01-27T06:24:45;0.00;99.90
25342;DHT22;13298;48.792;9.154;2024-01-27T06:27:11;-0.10;99.90
25342;DHT22;13298;48.792;9.154;2024-01-27T06:29:37;-0.10;99.90
25342;DHT22;13298;48.792;9.154;2024-01-27T06:32:03;-0.10;99.90
25342;DHT22;13298;48.792;9.154;2024-01-27T06:34:29;-0.20;99.90
25342;DHT22;13298;48.792;9.154;2024-01-27T06:36:55;-0.20;99.90
25342;DHT22;13298;48.792;9.154;2024-01-27T06:39:20;-0.20;99.90
25342;DHT22;13298;48.792;9.154;2024-01-27T06:41:47;-0.20;99.90
25342;DHT22;13298;48.792;9.154;2024-01-27T06:44:13;-0.20;99.90
25342;DHT22;13298;48.792;9.154;2024-01-27T06:46:39;-0.20;99.90
25342;DHT22;13298;48.792;9.154;2024-01-27T06:49:04;-0.20;99.90
25342;DHT22;13298;48.792;9.154;2024-01-27T06:51:30;-0.30;99.90
25342;DHT22;13298;48.792;9.154;2024-01-27T06:53:56;-0.30;99.90
25342;DHT22;13298;48.792;9.154;2024-01-27T06:56:21;-0.20;99.90
25342;DHT22;13298;48.792;9.154;2024-01-27T06:58:47;-0.20;99.90
25342;DHT22;13298;48.792;9.154;2024-01-27T07:01:13;-0.20;99.90
25342;DHT22;13298;48.792;9.154;2024-01-27T07:03:38;-0.20;99.90
25342;DHT22;13298;48.792;9.154;2024-01-27T07:06:05;-0.20;99.90
25342;DHT22;13298;48.792;9.154;2024-01-27T07:08:31;-0.20;99.90
25342;DHT22;13298;48.792;9.154;2024-01-27T07:10:58;-0.20;99.90
25342;DHT22;13298;48.792;9.154;2024-01-27T07:13:23;-0.20;99.90
25342;DHT22;13298;48.792;9.154;2024-01-27T07:15:49;-0.20;99.90
25342;DHT22;13298;48.792;9.154;2024-01-27T07:18:15;-0.20;99.90
25342;DHT22;13298;48.792;9.154;2024-01-27T07:20:42;-0.10;99.90
25342;DHT22;13298;48.792;9.154;2024-01-27T07:23:08;-0.10;99.90
25342;DHT22;13298;48.792;9.154;2024-01-27T07:25:34;-0.10;99.90
25342;DHT22;13298;48.792;9.154;2024-01-27T07:27:59;0.00;99.90
25342;DHT22;13298;48.792;9.154;2024-01-27T07:30:25;0.00;99.90
25342;DHT22;13298;48.792;9.154;2024-01-27T07:32:51;0.00;99.90
25342;DHT22;13298;48.792;9.154;2024-01-27T07:35:17;0.10;99.90
25342;DHT22;13298;48.792;9.154;2024-01-27T07:37:42;0.10;99.90
25342;DHT22;13298;48.792;9.154;2024-01-27T07:40:09;0.10;99.90
25342;DHT22;13298;48.792;9.154;2024-01-27T07:42:35;0.10;99.90
25342;DHT22;13298;48.792;9.154;2024-01-27T07:45:01;0.20;99.90
25342;DHT22;13298;48.792;9.154;2024-01-27T07:47:26;0.20;99.90
25342;DHT22;13298;48.792;9.154;2024-01-27T07:49:52;0.20;99.90
25342;DHT22;13298;48.792;9.154;2024-01-27T07:52:19;0.30;99.90
25342;DHT22;13298;48.792;9.154;2024-01-27T07:54:45;0.30;99.90
25342;DHT22;13298;48.792;9.154;2024-01-27T07:57:11;0.30;99.90
25342;DHT22;13298;48.792;9.154;2024-01-27T07:59:37;0.40;99.90
25342;DHT22;13298;48.792;9.154;2024-01-27T08:02:03;0.40;99.90
25342;DHT22;13298;48.792;9.154;2024-01-27T08:04:29;0.40;99.90
25342;DHT22;13298;48.792;9.154;2024-01-27T08:06:55;0.50;99.90
25342;DHT22;13298;48.792;9.154;2024-01-27T08:09:21;0.50;99.90
25342;DHT22;13298;48.792;9.154;2024-01-27T08:11:47;0.50;99.90
25342;DHT22;13298;48.792;9.154;2024-01-27T08:14:16;0.60;99.90
25342;DHT22;13298;48.792;9.154;2024-01-27T08:16:42;0.60;99.90
25342;DHT22;13298;48.792;9.154;2024-01-27T08:19:08;0.70;99.90
25342;DHT22;13298;48.792;9.154;2024-01-27T08:21:34;0.70;99.90
25342;DHT22;13298;48.792;9.154;2024-01-27T08:23:59;0.80;99.90
25342;DHT22;13298;48.792;9.154;2024-01-27T08:26:25;0.90;99.90
25342;DHT22;13298;48.792;9.154;2024-01-27T08:28:51;1.00;99.90
25342;DHT22;13298;48.792;9.154;2024-01-27T08:31:17;1.00;99.90
25342;DHT22;13298;48.792;9.154;2024-01-27T08:33:42;1.10;99.90
25342;DHT22;13298;48.792;9.154;2024-01-27T08:36:13;1.10;99.90
25342;DHT22;13298;48.792;9.154;2024-01-27T08:38:39;1.20;99.90
25342;DHT22;13298;48.792;9.154;2024-01-27T08:41:05;1.20;99.90
25342;DHT22;13298;48.792;9.154;2024-01-27T08:43:31;1.20;99.90
25342;DHT22;13298;48.792;9.154;2024-01-27T08:45:56;1.30;99.90
25342;DHT22;13298;48.792;9.154;2024-01-27T08:48:24;1.30;99.90
25342;DHT22;13298;48.792;9.154;2024-01-27T08:50:50;1.30;99.90
25342;DHT22;13298;48.792;9.154;2024-01-27T08:53:16;1.40;99.90
25342;DHT22;13298;48.792;9.154;2024-01-27T08:55:41;1.40;99.90
25342;DHT22;13298;48.792;9.154;2024-01-27T08:58:07;1.50;99.90
25342;DHT22;13298;48.792;9.154;2024-01-27T09:00:32;1.50;99.90
25342;DHT22;13298;48.792;9.154;2024-01-27T09:02:58;1.50;99.90
25342;DHT22;13298;48.792;9.154;2024-01-27T09:05:24;1.60;99.90
25342;DHT22;13298;48.792;9.154;2024-01-27T09:07:50;1.70;99.90
25342;DHT22;13298;48.792;9.154;2024-01-27T09:10:15;1.70;99.90
25342;DHT22;13298;48.792;9.154;2024-01-27T09:12:42;1.70;99.90
25342;DHT22;13298;48.792;9.154;2024-01-27T09:15:08;1.80;99.90
25342;DHT22;13298;48.792;9.154;2024-01-27T09:17:34;1.80;99.90
25342;DHT22;13298;48.792;9.154;2024-01-27T09:19:59;1.90;99.90
25342;DHT22;13298;48.792;9.154;2024-01-27T09:22:25;1.90;99.90
25342;DHT22;13298;48.792;9.154;2024-01-27T09:24:51;1.90;99.90
25342;DHT22;13298;48.792;9.154;2024-01-27T09:27:18;2.00;99.90
25342;DHT22;13298;48.792;9.154;2024-01-27T09:29:44;2.10;99.90
25342;DHT22;13298;48.792;9.154;2024-01-27T09:32:09;2.10;99.90
25342;DHT22;13298;48.792;9.154;2024-01-27T09:34:35;2.20;99.90
25342;DHT22;13298;48.792;9.154;2024-01-27T09:37:01;2.20;99.90
25342;DHT22;13298;48.792;9.154;2024-01-27T09:39:27;2.20;99.90
25342;DHT22;13298;48.792;9.154;2024-01-27T09:41:54;2.30;99.90
25342;DHT22;13298;48.792;9.154;2024-01-27T09:44:21;2.40;99.90
25342;DHT22;13298;48.792;9.154;2024-01-27T09:46:47;2.40;99.90
25342;DHT22;13298;48.792;9.154;2024-01-27T09:49:14;2.50;99.90
25342;DHT22;13298;48.792;9.154;2024-01-27T09:51:41;2.60;99.90
25342;DHT22;13298;48.792;9.154;2024-01-27T09:54:07;2.60;99.90
25342;DHT22;13298;48.792;9.154;2024-01-27T09:56:33;2.70;99.90
25342;DHT22;13298;48.792;9.154;2024-01-27T09:58:59;2.80;99.90
25342;DHT22;13298;48.792;9.154;2024-01-27T10:01:26;2.90;99.90
25342;DHT22;13298;48.792;9.154;2024-01-27T10:03:54;2.90;99.90
25342;DHT22;13298;48.792;9.154;2024-01-27T10:06:23;3.00;99.90
25342;DHT22;13298;48.792;9.154;2024-01-27T10:08:54;3.10;99.90
25342;DHT22;13298;48.792;9.154;2024-01-27T10:11:21;3.10;99.90
25342;DHT22;13298;48.792;9.154;2024-01-27T10:13:57;3.20;99.90
25342;DHT22;13298;48.792;9.154;2024-01-27T10:16:25;3.30;99.90
25342;DHT22;13298;48.792;9.154;2024-01-27T10:19:03;3.40;99.90
25342;DHT22;13298;48.792;9.154;2024-01-27T10:21:29;3.40;99.90
25342;DHT22;13298;48.792;9.154;2024-01-27T10:23:55;3.50;99.90
25342;DHT22;13298;48.792;9.154;2024-01-27T10:26:21;3.50;99.90
25342;DHT22;13298;48.792;9.154;2024-01-27T10:28:56;3.50;99.90
25342;DHT22;13298;48.792;9.154;2024-01-27T10:31:26;3.60;99.90
25342;DHT22;13298;48.792;9.154;2024-01-27T10:33:54;3.60;99.90
25342;DHT22;13298;48.792;9.154;2024-01-27T10:36:21;3.70;99.90
25342;DHT22;13298;48.792;9.154;2024-01-27T10:38:48;3.70;99.90
25342;DHT22;13298;48.792;9.154;2024-01-27T10:41:20;3.80;99.90
25342;DHT22;13298;48.792;9.154;2024-01-27T10:43:50;3.90;99.90
25342;DHT22;13298;48.792;9.154;2024-01-27T10:46:21;3.90;99.90
25342;DHT22;13298;48.792;9.154;2024-01-27T10:48:50;3.90;99.90
25342;DHT22;13298;48.792;9.154;2024-01-27T10:51:26;4.00;99.90
25342;DHT22;13298;48.792;9.154;2024-01-27T10:54:01;4.00;99.90
25342;DHT22;13298;48.792;9.154;2024-01-27T10:56:29;4.10;99.90
25342;DHT22;13298;48.792;9.154;2024-01-27T10:58:58;4.10;99.90
25342;DHT22;13298;48.792;9.154;2024-01-27T11:01:25;4.10;99.90
25342;DHT22;13298;48.792;9.154;2024-01-27T11:03:54;4.20;99.90
25342;DHT22;13298;48.792;9.154;2024-01-27T11:06:22;4.30;99.90
25342;DHT22;13298;48.792;9.154;2024-01-27T11:08:49;4.30;99.90
25342;DHT22;13298;48.792;9.154;2024-01-27T11:11:16;4.30;99.90
25342;DHT22;13298;48.792;9.154;2024-01-27T11:13:43;4.30;99.90
25342;DHT22;13298;48.792;9.154;2024-01-27T11:16:17;4.40;99.90
25342;DHT22;13298;48.792;9.154;2024-01-27T11:18:44;4.40;99.90
25342;DHT22;13298;48.792;9.154;2024-01-27T11:21:17;4.40;99.90
25342;DHT22;13298;48.792;9.154;2024-01-27T11:23:43;4.40;99.90
25342;DHT22;13298;48.792;9.154;2024-01-27T11:26:10;4.40;99.90
25342;DHT22;13298;48.792;9.154;2024-01-27T11:28:38;4.40;99.90
25342;DHT22;13298;48.792;9.154;2024-01-27T11:31:06;4.50;99.90
25342;DHT22;13298;48.792;9.154;2024-01-27T11:33:32;4.50;99.90
25342;DHT22;13298;48.792;9.154;2024-01-27T11:36:05;4.50;99.90
25342;DHT22;13298;48.792;9.154;2024-01-27T11:38:32;4.60;99.90
25342;DHT22;13298;48.792;9.154;2024-01-27T11:41:01;4.70;99.90
25342;DHT22;13298;48.792;9.154;2024-01-27T11:43:27;4.70;99.90
25342;DHT22;13298;48.792;9.154;2024-01-27T11:45:59;4.70;99.90
25342;DHT22;13298;48.792;9.154;2024-01-27T11:48:26;4.80;99.90
25342;DHT22;13298;48.792;9.154;2024-01-27T11:51:21;4.80;99.90
25342;DHT22;13298;48.792;9.154;2024-01-27T11:53:48;4.80;99.90
25342;DHT22;13298;48.792;9.154;2024-01-27T11:56:14;4.80;99.90
25342;DHT22;13298;48.792;9.154;2024-01-27T11:58:46;4.80;99.90
25342;DHT22;13298;48.792;9.154;2024-01-27T12:01:14;4.80;99.90
25342;DHT22;13298;48.792;9.154;2024-01-27T12:03:40;4.80;99.90
25342;DHT22;13298;48.792;9.154;2024-01-27T12:06:06;4.80;99.90
25342;DHT22;13298;48.792;9.154;2024-01-27T12:08:35;4.80;99.90
25342;DHT22;13298;48.792;9.154;2024-01-27T12:11:01;4.80;99.90
25342;DHT22;13298;48.792;9.154;2024-01-27T12:13:27;4.80;99.90
25342;DHT22;13298;48.792;9.154;2024-01-27T12:15:53;4.80;99.90
25342;DHT22;13298;48.792;9.154;2024-01-27T12:18:19;4.80;99.90
25342;DHT22;13298;48.792;9.154;2024-01-27T12:20:45;4.90;99.90
25342;DHT22;13298;48.792;9.154;2024-01-27T12:23:11;4.80;99.90
25342;DHT22;13298;48.792;9.154;2024-01-27T12:25:36;4.90;99.90
25342;DHT22;13298;48.792;9.154;2024-01-27T12:28:06;4.90;99.90
25342;DHT22;13298;48.792;9.154;2024-01-27T12:30:33;4.90;99.90
25342;DHT22;13298;48.792;9.154;2024-01-27T12:33:08;5.00;99.90
25342;DHT22;13298;48.792;9.154;2024-01-27T12:35:34;5.00;99.90
25342;DHT22;13298;48.792;9.154;2024-01-27T12:38:00;5.00;99.90
25342;DHT22;13298;48.792;9.154;2024-01-27T12:40:27;5.00;99.90
25342;DHT22;13298;48.792;9.154;2024-01-27T12:42:53;5.00;99.90
25342;DHT22;13298;48.792;9.154;2024-01-27T12:45:19;5.10;99.90
25342;DHT22;13298;48.792;9.154;2024-01-27T12:47:45;5.10;99.90
25342;DHT22;13298;48.792;9.154;2024-01-27T12:50:10;5.10;99.90
25342;DHT22;13298;48.792;9.154;2024-01-27T12:52:36;5.20;99.90
25342;DHT22;13298;48.792;9.154;2024-01-27T12:55:03;5.20;99.90
25342;DHT22;13298;48.792;9.154;2024-01-27T12:57:30;5.30;99.90
25342;DHT22;13298;48.792;9.154;2024-01-27T12:59:55;5.30;99.90
25342;DHT22;13298;48.792;9.154;2024-01-27T13:02:21;5.40;99.90
25342;DHT22;13298;48.792;9.154;2024-01-27T13:04:47;5.30;99.90
25342;DHT22;13298;48.792;9.154;2024-01-27T13:07:12;5.30;99.90
25342;DHT22;13298;48.792;9.154;2024-01-27T13:09:39;5.30;99.90
25342;DHT22;13298;48.792;9.154;2024-01-27T13:12:05;5.30;99.90
25342;DHT22;13298;48.792;9.154;2024-01-27T13:14:31;5.20;99.90
25342;DHT22;13298;48.792;9.154;2024-01-27T13:16:56;5.20;99.90
25342;DHT22;13298;48.792;9.154;2024-01-27T13:19:24;5.20;99.90
25342;DHT22;13298;48.792;9.154;2024-01-27T13:21:51;5.30;99.90
25342;DHT22;13298;48.792;9.154;2024-01-27T13:24:17;5.30;99.90
25342;DHT22;13298;48.792;9.154;2024-01-27T13:26:42;5.30;99.90
25342;DHT22;13298;48.792;9.154;2024-01-27T13:29:08;5.20;99.90
25342;DHT22;13298;48.792;9.154;2024-01-27T13:31:34;5.20;99.90
25342;DHT22;13298;48.792;9.154;2024-01-27T13:34:00;5.20;99.90
25342;DHT22;13298;48.792;9.154;2024-01-27T13:36:27;5.20;99.90
25342;DHT22;13298;48.792;9.154;2024-01-27T13:38:52;5.20;99.90
25342;DHT22;13298;48.792;9.154;2024-01-27T13:41:18;5.20;99.90
25342;DHT22;13298;48.792;9.154;2024-01-27T13:43:44;5.20;99.90
25342;DHT22;13298;48.792;9.154;2024-01-27T13:46:10;5.20;99.90
25342;DHT22;13298;48.792;9.154;2024-01-27T13:48:36;5.30;99.90
25342;DHT22;13298;48.792;9.154;2024-01-27T13:51:02;5.30;99.90
25342;DHT22;13298;48.792;9.154;2024-01-27T13:53:28;5.30;99.90
25342;DHT22;13298;48.792;9.154;2024-01-27T13:55:54;5.20;99.90
25342;DHT22;13298;48.792;9.154;2024-01-27T13:58:21;5.30;99.90
25342;DHT22;13298;48.792;9.154;2024-01-27T14:00:47;5.30;99.90
25342;DHT22;13298;48.792;9.154;2024-01-27T14:03:13;5.40;99.90
25342;DHT22;13298;48.792;9.154;2024-01-27T14:05:39;5.40;99.90
25342;DHT22;13298;48.792;9.154;2024-01-27T14:08:06;5.40;99.90
25342;DHT22;13298;48.792;9.154;2024-01-27T14:10:34;5.40;99.90
25342;DHT22;13298;48.792;9.154;2024-01-27T14:13:00;5.40;99.90
25342;DHT22;13298;48.792;9.154;2024-01-27T14:15:28;5.40;99.90
25342;DHT22;13298;48.792;9.154;2024-01-27T14:17:54;5.40;99.90
25342;DHT22;13298;48.792;9.154;2024-01-27T14:20:20;5.40;99.90
25342;DHT22;13298;48.792;9.154;2024-01-27T14:22:46;5.40;99.90
25342;DHT22;13298;48.792;9.154;2024-01-27T14:25:12;5.30;99.90
25342;DHT22;13298;48.792;9.154;2024-01-27T14:27:38;5.30;99.90
25342;DHT22;13298;48.792;9.154;2024-01-27T14:30:04;5.40;99.90
25342;DHT22;13298;48.792;9.154;2024-01-27T14:32:30;5.40;99.90
25342;DHT22;13298;48.792;9.154;2024-01-27T14:34:55;5.40;99.90
25342;DHT22;13298;48.792;9.154;2024-01-27T14:37:22;5.30;99.90
25342;DHT22;13298;48.792;9.154;2024-01-27T14:39:48;5.30;99.90
25342;DHT22;13298;48.792;9.154;2024-01-27T14:42:14;5.30;99.90
25342;DHT22;13298;48.792;9.154;2024-01-27T14:44:40;5.30;99.90
25342;DHT22;13298;48.792;9.154;2024-01-27T14:47:08;5.20;99.90
25342;DHT22;13298;48.792;9.154;2024-01-27T14:49:34;5.20;99.90
25342;DHT22;13298;48.792;9.154;2024-01-27T14:52:01;5.20;99.90
25342;DHT22;13298;48.792;9.154;2024-01-27T14:54:27;5.20;99.90
25342;DHT22;13298;48.792;9.154;2024-01-27T14:56:53;5.20;99.90
25342;DHT22;13298;48.792;9.154;2024-01-27T14:59:19;5.10;99.90
25342;DHT22;13298;48.792;9.154;2024-01-27T15:01:44;5.10;99.90
25342;DHT22;13298;48.792;9.154;2024-01-27T15:04:12;5.00;99.90
25342;DHT22;13298;48.792;9.154;2024-01-27T15:06:38;5.00;99.90
25342;DHT22;13298;48.792;9.154;2024-01-27T15:09:04;4.90;99.90
25342;DHT22;13298;48.792;9.154;2024-01-27T15:11:29;4.90;99.90
25342;DHT22;13298;48.792;9.154;2024-01-27T15:13:55;4.90;99.90
25342;DHT22;13298;48.792;9.154;2024-01-27T15:16:22;4.80;99.90
25342;DHT22;13298;48.792;9.154;2024-01-27T15:18:48;4.80;99.90
25342;DHT22;13298;48.792;9.154;2024-01-27T15:21:15;4.70;99.90
25342;DHT22;13298;48.792;9.154;2024-01-27T15:23:42;4.70;99.90
25342;DHT22;13298;48.792;9.154;2024-01-27T15:26:08;4.70;99.90
25342;DHT22;13298;48.792;9.154;2024-01-27T15:28:36;4.70;99.90
25342;DHT22;13298;48.792;9.154;2024-01-27T15:31:01;4.60;99.90
25342;DHT22;13298;48.792;9.154;2024-01-27T15:33:27;4.60;99.90
25342;DHT22;13298;48.792;9.154;2024-01-27T15:35:53;4.60;99.90
25342;DHT22;13298;48.792;9.154;2024-01-27T15:38:18;4.60;99.90
25342;DHT22;13298;48.792;9.154;2024-01-27T15:40:44;4.50;99.90